createdAt,value
2022-12-24T01:24:05.091Z,506.00
2022-12-24T01:25:05.074Z,504.00
2022-12-24T01:26:05.076Z,503.00
2022-12-24T01:27:05.056Z,506.00
2022-12-24T01:28:05.053Z,505.00
2022-12-24T01:29:05.038Z,506.00
2022-12-24T01:30:05.033Z,507.00
2022-12-24T01:31:05.036Z,504.00
2022-12-24T01:32:05.020Z,502.00
2022-12-24T01:33:04.999Z,506.00
2022-12-24T01:34:05.023Z,508.00
2022-12-24T01:35:04.984Z,506.00
2022-12-24T01:36:04.974Z,506.00
2022-12-24T01:37:04.962Z,504.00
2022-12-24T01:38:04.967Z,501.00
2022-12-24T01:39:04.972Z,500.00
2022-12-24T01:40:04.939Z,509.00
2022-12-24T01:41:04.923Z,501.00
2022-12-24T01:42:04.916Z,505.00
2022-12-24T01:43:04.918Z,503.00
2022-12-24T01:44:04.919Z,504.00
2022-12-24T01:45:04.907Z,508.00
2022-12-24T01:46:04.907Z,507.00
2022-12-24T01:47:04.869Z,508.00
2022-12-24T01:48:04.857Z,507.00
2022-12-24T01:49:04.869Z,505.00
2022-12-24T01:50:04.845Z,511.00
2022-12-24T01:51:04.840Z,509.00
2022-12-24T01:52:04.827Z,510.00
2022-12-24T01:53:04.829Z,513.00
2022-12-24T01:54:04.835Z,504.00
2022-12-24T01:55:04.803Z,505.00
2022-12-24T01:56:04.797Z,507.00
2022-12-24T01:57:04.785Z,502.00
2022-12-24T01:58:04.768Z,510.00
2022-12-24T01:59:04.784Z,511.00
2022-12-24T02:00:04.771Z,506.00
2022-12-24T02:01:04.779Z,507.00
2022-12-24T02:02:04.890Z,508.00
2022-12-24T02:03:04.837Z,505.00
2022-12-24T02:04:04.725Z,505.00
2022-12-24T02:05:04.689Z,507.00
2022-12-24T02:06:04.685Z,505.00
2022-12-24T02:07:04.682Z,507.00
2022-12-24T02:08:04.662Z,508.00
2022-12-24T02:09:04.653Z,506.00
2022-12-24T02:10:04.649Z,505.00
2022-12-24T02:11:04.627Z,509.00
2022-12-24T02:12:04.624Z,503.00
2022-12-24T02:13:04.620Z,510.00
2022-12-24T02:14:04.603Z,513.00
2022-12-24T02:15:04.590Z,503.00
2022-12-24T02:16:04.673Z,507.00
2022-12-24T02:17:04.565Z,502.00
2022-12-24T02:18:04.561Z,506.00
2022-12-24T02:19:04.555Z,503.00
2022-12-24T02:20:04.568Z,511.00
2022-12-24T02:21:04.560Z,500.00
2022-12-24T02:22:04.535Z,504.00
2022-12-24T02:23:04.536Z,506.00
2022-12-24T02:24:04.523Z,504.00
2022-12-24T02:25:04.508Z,502.00
2022-12-24T02:26:04.491Z,504.00
2022-12-24T02:27:04.473Z,507.00
2022-12-24T02:28:04.458Z,505.00
2022-12-24T02:29:04.452Z,503.00
2022-12-24T02:30:04.452Z,512.00
2022-12-24T02:31:04.469Z,510.00
2022-12-24T02:32:04.422Z,508.00
2022-12-24T02:33:04.404Z,510.00
2022-12-24T02:34:04.401Z,505.00
2022-12-24T02:35:04.387Z,510.00
2022-12-24T02:36:04.367Z,507.00
2022-12-24T02:37:04.351Z,510.00
2022-12-24T02:38:04.348Z,503.00
2022-12-24T02:39:04.344Z,507.00
2022-12-24T02:40:04.520Z,502.00
2022-12-24T02:41:04.311Z,511.00
2022-12-24T02:42:04.299Z,508.00
2022-12-24T02:43:04.282Z,512.00
2022-12-24T02:44:04.280Z,505.00
2022-12-24T02:45:04.292Z,507.00
2022-12-24T02:46:04.269Z,501.00
2022-12-24T02:47:04.360Z,507.00
2022-12-24T02:48:04.241Z,504.00
2022-12-24T02:49:04.213Z,502.00
2022-12-24T02:50:04.220Z,506.00
2022-12-24T02:51:04.222Z,505.00
2022-12-24T02:52:04.188Z,504.00
2022-12-24T02:53:04.171Z,509.00
2022-12-24T02:54:04.159Z,504.00
2022-12-24T02:55:04.153Z,506.00
2022-12-24T02:56:04.147Z,506.00
2022-12-24T02:57:04.115Z,506.00
2022-12-24T02:58:04.103Z,506.00
2022-12-24T02:59:04.123Z,507.00
2022-12-24T03:00:04.095Z,504.00
2022-12-24T03:01:04.220Z,508.00
2022-12-24T03:02:04.150Z,505.00
2022-12-24T03:03:04.109Z,505.00
2022-12-24T03:04:04.036Z,504.00
2022-12-24T03:05:04.013Z,507.00
2022-12-24T03:06:03.995Z,503.00
2022-12-24T03:07:04.000Z,508.00
2022-12-24T03:08:03.975Z,507.00
2022-12-24T03:09:03.965Z,510.00
2022-12-24T03:10:03.950Z,508.00
2022-12-24T03:11:03.946Z,503.00
2022-12-24T03:12:03.928Z,509.00
2022-12-24T03:13:03.913Z,510.00
2022-12-24T03:14:03.899Z,506.00
2022-12-24T03:15:03.872Z,507.00
2022-12-24T03:16:03.871Z,506.00
2022-12-24T03:17:03.858Z,505.00
2022-12-24T03:18:03.827Z,507.00
2022-12-24T03:19:03.804Z,507.00
2022-12-24T03:20:03.829Z,505.00
2022-12-24T03:21:03.806Z,505.00
2022-12-24T03:22:03.784Z,505.00
2022-12-24T03:23:03.750Z,503.00
2022-12-24T03:24:03.746Z,502.00
2022-12-24T03:25:03.726Z,511.00
2022-12-24T03:26:03.717Z,506.00
2022-12-24T03:27:03.713Z,506.00
2022-12-24T03:28:03.702Z,506.00
2022-12-24T03:29:03.697Z,506.00
2022-12-24T03:30:03.669Z,506.00
2022-12-24T03:31:03.705Z,509.00
2022-12-24T03:32:03.713Z,511.00
2022-12-24T03:33:03.645Z,502.00
2022-12-24T03:34:03.631Z,508.00
2022-12-24T03:35:03.629Z,508.00
2022-12-24T03:36:03.630Z,508.00
2022-12-24T03:37:03.598Z,504.00
2022-12-24T03:38:03.589Z,500.00
2022-12-24T03:39:03.578Z,506.00
2022-12-24T03:40:03.575Z,509.00
2022-12-24T03:41:03.571Z,504.00
2022-12-24T03:42:03.551Z,506.00
2022-12-24T03:43:03.550Z,507.00
2022-12-24T03:44:03.561Z,507.00
2022-12-24T03:45:03.522Z,505.00
2022-12-24T03:46:03.553Z,506.00
2022-12-24T03:47:03.516Z,503.00
2022-12-24T03:48:03.505Z,510.00
2022-12-24T03:49:03.480Z,503.00
2022-12-24T03:50:03.483Z,501.00
2022-12-24T03:51:03.488Z,505.00
2022-12-24T03:52:03.465Z,507.00
2022-12-24T03:53:03.461Z,503.00
2022-12-24T03:54:03.448Z,500.00
2022-12-24T03:55:03.432Z,510.00
2022-12-24T03:56:03.426Z,507.00
2022-12-24T03:57:03.428Z,507.00
2022-12-24T03:58:03.409Z,511.00
2022-12-24T03:59:03.391Z,509.00
2022-12-24T04:00:03.378Z,505.00
2022-12-24T04:01:03.555Z,508.00
2022-12-24T04:02:03.483Z,507.00
2022-12-24T04:03:03.394Z,508.00
2022-12-24T04:04:03.346Z,505.00
2022-12-24T04:05:03.457Z,507.00
2022-12-24T04:06:03.335Z,507.00
2022-12-24T04:07:03.305Z,504.00
2022-12-24T04:08:03.289Z,506.00
2022-12-24T04:09:03.288Z,507.00
2022-12-24T04:10:03.262Z,507.00
2022-12-24T04:11:09.302Z,503.00
2022-12-24T04:12:04.247Z,504.00
2022-12-24T04:13:03.249Z,504.00
2022-12-24T04:14:03.234Z,504.00
2022-12-24T04:15:03.226Z,506.00
2022-12-24T04:16:03.320Z,503.00
2022-12-24T04:17:03.251Z,504.00
2022-12-24T04:18:03.202Z,504.00
2022-12-24T04:19:03.203Z,504.00
2022-12-24T04:20:03.318Z,504.00
2022-12-24T04:21:03.188Z,504.00
2022-12-24T04:22:03.177Z,504.00
2022-12-24T04:23:03.163Z,504.00
2022-12-24T04:24:03.155Z,504.00
2022-12-24T04:25:03.147Z,506.00
2022-12-24T04:26:03.149Z,508.00
2022-12-24T04:27:03.135Z,506.00
2022-12-24T04:28:03.136Z,504.00
2022-12-24T04:29:03.111Z,504.00
2022-12-24T04:30:03.182Z,507.00
2022-12-24T04:31:03.102Z,507.00
2022-12-24T04:32:03.181Z,505.00
2022-12-24T04:33:03.083Z,506.00
2022-12-24T04:34:03.093Z,508.00
2022-12-24T04:35:03.125Z,505.00
2022-12-24T04:36:03.045Z,503.00
2022-12-24T04:37:03.046Z,505.00
2022-12-24T04:38:03.033Z,501.00
2022-12-24T04:39:03.031Z,510.00
2022-12-24T04:40:03.129Z,506.00
2022-12-24T04:41:03.033Z,505.00
2022-12-24T04:42:03.025Z,507.00
2022-12-24T04:43:03.027Z,504.00
2022-12-24T04:44:03.014Z,500.00
2022-12-24T04:45:03.116Z,508.00
2022-12-24T04:46:03.081Z,504.00
2022-12-24T04:47:03.001Z,504.00
2022-12-24T04:48:03.008Z,508.00
2022-12-24T04:49:02.991Z,509.00
2022-12-24T04:50:02.976Z,506.00
2022-12-24T04:51:02.980Z,511.00
2022-12-24T04:52:02.953Z,509.00
2022-12-24T04:53:02.944Z,505.00
2022-12-24T04:54:02.920Z,506.00
2022-12-24T04:55:02.917Z,507.00
2022-12-24T04:56:02.898Z,508.00
2022-12-24T04:57:02.896Z,507.00
2022-12-24T04:58:02.863Z,505.00
2022-12-24T04:59:02.856Z,508.00
2022-12-24T05:00:02.845Z,503.00
2022-12-24T05:01:02.903Z,505.00
2022-12-24T05:02:02.988Z,503.00
2022-12-24T05:03:02.861Z,504.00
2022-12-24T05:04:02.803Z,500.00
2022-12-24T05:05:02.813Z,504.00
2022-12-24T05:06:02.785Z,504.00
2022-12-24T05:07:02.804Z,510.00
2022-12-24T05:08:02.775Z,503.00
2022-12-24T05:09:02.757Z,502.00
2022-12-24T05:10:02.744Z,508.00
2022-12-24T05:11:02.737Z,506.00
2022-12-24T05:12:02.755Z,504.00
2022-12-24T05:13:02.704Z,502.00
2022-12-24T05:14:02.697Z,503.00
2022-12-24T05:15:02.694Z,500.00
2022-12-24T05:16:02.663Z,503.00
2022-12-24T05:17:02.686Z,507.00
2022-12-24T05:18:02.654Z,503.00
2022-12-24T05:19:02.659Z,505.00
2022-12-24T05:20:02.608Z,506.00
2022-12-24T05:21:02.598Z,506.00
2022-12-24T05:22:02.575Z,505.00
2022-12-24T05:23:02.562Z,506.00
2022-12-24T05:24:02.571Z,505.00
2022-12-24T05:25:02.541Z,510.00
2022-12-24T05:26:02.520Z,503.00
2022-12-24T05:27:02.527Z,508.00
2022-12-24T05:28:02.489Z,506.00
2022-12-24T05:29:02.493Z,511.00
2022-12-24T05:30:02.464Z,507.00
2022-12-24T05:31:02.506Z,507.00
2022-12-24T05:32:02.441Z,510.00
2022-12-24T05:33:02.444Z,506.00
2022-12-24T05:34:02.407Z,505.00
2022-12-24T05:35:02.395Z,509.00
2022-12-24T05:36:02.392Z,505.00
2022-12-24T05:37:02.374Z,504.00
2022-12-24T05:38:02.383Z,507.00
2022-12-24T05:39:02.375Z,500.00
2022-12-24T05:40:02.345Z,507.00
2022-12-24T05:41:02.353Z,505.00
2022-12-24T05:42:02.327Z,507.00
2022-12-24T05:43:02.389Z,501.00
2022-12-24T05:44:02.329Z,505.00
2022-12-24T05:45:02.323Z,501.00
2022-12-24T05:46:02.386Z,503.00
2022-12-24T05:47:02.317Z,504.00
2022-12-24T05:48:02.311Z,505.00
2022-12-24T05:49:02.292Z,506.00
2022-12-24T05:50:02.279Z,506.00
2022-12-24T05:51:02.284Z,506.00
2022-12-24T05:52:02.281Z,505.00
2022-12-24T05:53:02.281Z,509.00
2022-12-24T05:54:02.272Z,505.00
2022-12-24T05:55:02.265Z,507.00
2022-12-24T05:56:02.254Z,510.00
2022-12-24T05:57:02.242Z,508.00
2022-12-24T05:58:02.248Z,505.00
2022-12-24T05:59:02.237Z,507.00
2022-12-24T06:00:02.215Z,504.00
2022-12-24T06:01:02.256Z,510.00
2022-12-24T06:02:02.225Z,503.00
2022-12-24T06:03:02.270Z,504.00
2022-12-24T06:04:02.269Z,509.00
2022-12-24T06:05:02.248Z,507.00
2022-12-24T06:06:02.155Z,506.00
2022-12-24T06:07:02.134Z,507.00
2022-12-24T06:08:02.144Z,507.00
2022-12-24T06:09:02.146Z,509.00
2022-12-24T06:10:02.093Z,508.00
2022-12-24T06:11:02.094Z,505.00
2022-12-24T06:12:02.081Z,509.00
2022-12-24T06:13:02.060Z,510.00
2022-12-24T06:14:02.037Z,506.00
2022-12-24T06:15:02.047Z,506.00
2022-12-24T06:16:02.106Z,507.00
2022-12-24T06:17:02.008Z,509.00
2022-12-24T06:18:01.983Z,504.00
2022-12-24T06:19:01.985Z,507.00
2022-12-24T06:20:02.025Z,511.00
2022-12-24T06:21:01.954Z,511.00
2022-12-24T06:22:01.941Z,512.00
2022-12-24T06:23:01.928Z,504.00
2022-12-24T06:24:01.927Z,508.00
2022-12-24T06:25:01.907Z,507.00
2022-12-24T06:26:01.898Z,508.00
2022-12-24T06:27:01.885Z,513.00
2022-12-24T06:28:01.869Z,510.00
2022-12-24T06:29:01.867Z,510.00
2022-12-24T06:30:01.846Z,509.00
2022-12-24T06:31:03.189Z,511.00
2022-12-24T06:32:01.856Z,513.00
2022-12-24T06:33:01.798Z,511.00
2022-12-24T06:34:01.792Z,518.00
2022-12-24T06:35:01.772Z,515.00
2022-12-24T06:36:01.767Z,513.00
2022-12-24T06:37:01.754Z,513.00
2022-12-24T06:38:01.740Z,512.00
2022-12-24T06:39:01.764Z,516.00
2022-12-24T06:40:01.758Z,515.00
2022-12-24T06:41:01.711Z,514.00
2022-12-24T06:42:01.704Z,517.00
2022-12-24T06:43:01.687Z,515.00
2022-12-24T06:44:01.698Z,513.00
2022-12-24T06:45:07.790Z,514.00
2022-12-24T06:46:02.685Z,514.00
2022-12-24T06:47:01.698Z,514.00
2022-12-24T06:48:01.636Z,516.00
2022-12-24T06:49:01.637Z,516.00
2022-12-24T06:50:01.610Z,518.00
2022-12-24T06:51:01.606Z,516.00
2022-12-24T06:52:01.595Z,511.00
2022-12-24T06:53:01.588Z,514.00
2022-12-24T06:54:01.573Z,512.00
2022-12-24T06:55:01.565Z,517.00
2022-12-24T06:56:01.552Z,512.00
2022-12-24T06:57:01.549Z,513.00
2022-12-24T06:58:01.559Z,516.00
2022-12-24T06:59:05.253Z,517.00
2022-12-24T07:00:01.529Z,517.00
2022-12-24T07:01:01.530Z,515.00
2022-12-24T07:02:01.659Z,518.00
2022-12-24T07:03:01.518Z,515.00
2022-12-24T07:04:01.602Z,518.00
2022-12-24T07:05:01.539Z,515.00
2022-12-24T07:06:01.518Z,519.00
2022-12-24T07:07:01.497Z,514.00
2022-12-24T07:08:01.487Z,514.00
2022-12-24T07:09:01.494Z,515.00
2022-12-24T07:10:01.481Z,521.00
2022-12-24T07:11:01.473Z,516.00
2022-12-24T07:12:01.456Z,516.00
2022-12-24T07:13:01.451Z,516.00
2022-12-24T07:14:01.446Z,516.00
2022-12-24T07:15:01.435Z,513.00
2022-12-24T07:16:01.575Z,516.00
2022-12-24T07:17:01.515Z,516.00
2022-12-24T07:18:01.391Z,517.00
2022-12-24T07:19:01.425Z,517.00
2022-12-24T07:20:01.390Z,515.00
2022-12-24T07:21:01.388Z,514.00
2022-12-24T07:22:01.365Z,515.00
2022-12-24T07:23:01.360Z,515.00
2022-12-24T07:24:01.345Z,515.00
2022-12-24T07:25:01.327Z,515.00
2022-12-24T07:26:01.324Z,516.00
2022-12-24T07:27:01.316Z,515.00
2022-12-24T07:28:01.321Z,517.00
2022-12-24T07:29:01.291Z,522.00
2022-12-24T07:30:01.297Z,521.00
2022-12-24T07:31:01.392Z,520.00
2022-12-24T07:32:01.265Z,517.00
2022-12-24T07:33:01.252Z,519.00
2022-12-24T07:34:01.266Z,519.00
2022-12-24T07:35:01.292Z,519.00
2022-12-24T07:36:01.244Z,521.00
2022-12-24T07:37:01.238Z,517.00
2022-12-24T07:38:01.227Z,518.00
2022-12-24T07:39:01.235Z,518.00
2022-12-24T07:40:01.231Z,514.00
2022-12-24T07:41:01.207Z,518.00
2022-12-24T07:42:01.211Z,517.00
2022-12-24T07:43:01.201Z,520.00
2022-12-24T07:44:01.198Z,517.00
2022-12-24T07:45:01.215Z,517.00
2022-12-24T07:46:01.181Z,523.00
2022-12-24T07:47:01.262Z,518.00
2022-12-24T07:48:01.171Z,516.00
2022-12-24T07:49:01.174Z,519.00
2022-12-24T07:50:01.195Z,521.00
2022-12-24T07:51:01.171Z,518.00
2022-12-24T07:52:01.171Z,516.00
2022-12-24T07:53:01.168Z,513.00
2022-12-24T07:54:01.170Z,520.00
2022-12-24T07:55:01.155Z,521.00
2022-12-24T07:56:01.156Z,517.00
2022-12-24T07:57:01.150Z,510.00
2022-12-24T07:58:01.145Z,514.00
2022-12-24T07:59:01.146Z,516.00
2022-12-24T08:00:01.145Z,511.00
2022-12-24T08:01:01.121Z,519.00
2022-12-24T08:02:01.266Z,514.00
2022-12-24T08:03:01.272Z,514.00
2022-12-24T08:04:01.135Z,514.00
2022-12-24T08:05:01.113Z,514.00
2022-12-24T08:06:01.100Z,514.00
2022-12-24T08:07:01.083Z,516.00
2022-12-24T08:08:01.080Z,515.00
2022-12-24T08:09:01.077Z,518.00
2022-12-24T08:10:01.080Z,519.00
2022-12-24T08:11:01.053Z,515.00
2022-12-24T08:12:01.044Z,517.00
2022-12-24T08:13:01.052Z,517.00
2022-12-24T08:14:01.031Z,516.00
2022-12-24T08:15:01.053Z,513.00
2022-12-24T08:16:01.079Z,519.00
2022-12-24T08:17:01.028Z,519.00
2022-12-24T08:18:01.022Z,521.00
2022-12-24T08:19:01.032Z,519.00
2022-12-24T08:20:01.030Z,520.00
2022-12-24T08:21:01.014Z,522.00
2022-12-24T08:22:01.056Z,518.00
2022-12-24T08:40:00.831Z,520.00
2022-12-24T08:41:00.830Z,514.00
2022-12-24T08:42:00.845Z,514.00
2022-12-24T08:43:00.872Z,515.00
2022-12-24T08:44:00.818Z,516.00
2022-12-24T08:45:00.803Z,514.00
2022-12-24T08:46:00.858Z,509.00
2022-12-24T08:47:00.802Z,510.00
2022-12-24T08:48:00.779Z,512.00
2022-12-24T08:49:00.776Z,514.00
2022-12-24T08:50:00.753Z,509.00
2022-12-24T08:51:00.742Z,509.00
2022-12-24T08:52:00.736Z,507.00
2022-12-24T08:53:00.717Z,508.00
2022-12-24T08:54:00.705Z,506.00
2022-12-24T08:55:00.704Z,510.00
2022-12-24T08:56:00.700Z,501.00
2022-12-24T08:57:00.681Z,505.00
2022-12-24T08:58:00.675Z,500.00
2022-12-24T08:59:00.669Z,504.00
2022-12-24T09:00:00.689Z,502.00
2022-12-24T09:01:00.682Z,512.00
2022-12-24T09:02:00.841Z,509.00
2022-12-24T09:03:00.893Z,511.00
2022-12-24T09:04:00.631Z,509.00
2022-12-24T09:05:00.611Z,507.00
2022-12-24T09:06:00.612Z,507.00
2022-12-24T09:07:00.600Z,505.00
2022-12-24T09:08:00.596Z,508.00
2022-12-24T09:09:00.585Z,503.00
2022-12-24T09:10:00.583Z,510.00
2022-12-24T09:11:00.571Z,500.00
2022-12-24T09:12:00.591Z,502.00
2022-12-24T09:13:00.535Z,507.00
2022-12-24T09:14:00.543Z,509.00
2022-12-24T09:15:03.743Z,508.00
2022-12-24T09:16:00.529Z,508.00
2022-12-24T09:17:00.614Z,509.00
2022-12-24T09:18:00.482Z,502.00
2022-12-24T09:19:00.473Z,510.00
2022-12-24T09:20:00.500Z,507.00
2022-12-24T09:21:00.470Z,511.00
2022-12-24T09:22:00.457Z,511.00
2022-12-24T09:23:00.451Z,511.00
2022-12-24T09:24:00.456Z,509.00
2022-12-24T09:25:00.437Z,506.00
2022-12-24T09:26:00.444Z,509.00
2022-12-24T09:27:00.417Z,509.00
2022-12-24T09:28:00.435Z,507.00
2022-12-24T09:29:00.416Z,501.00
2022-12-24T09:30:00.386Z,510.00
2022-12-24T09:31:00.442Z,506.00
2022-12-24T09:32:00.436Z,507.00
2022-12-24T09:33:00.374Z,509.00
2022-12-24T09:34:00.366Z,506.00
2022-12-24T09:35:00.368Z,504.00
2022-12-24T09:36:00.412Z,508.00
2022-12-24T09:37:00.327Z,506.00
2022-12-24T09:38:00.355Z,505.00
2022-12-24T09:39:00.333Z,509.00
2022-12-24T09:40:00.364Z,506.00
2022-12-24T09:41:05.430Z,508.00
2022-12-24T09:42:01.362Z,509.00
2022-12-24T09:43:00.301Z,508.00
2022-12-24T09:44:00.302Z,509.00
2022-12-24T09:45:02.228Z,506.00
2022-12-24T09:46:00.379Z,505.00
2022-12-24T09:47:04.077Z,507.00
2022-12-24T09:48:01.336Z,507.00
2022-12-24T09:49:00.343Z,506.00
2022-12-24T09:50:00.302Z,509.00
2022-12-24T09:51:00.214Z,506.00
2022-12-24T09:52:00.347Z,507.00
2022-12-24T09:53:00.257Z,502.00
2022-12-24T09:54:00.194Z,508.00
2022-12-24T09:55:00.180Z,506.00
2022-12-24T09:56:00.215Z,504.00
2022-12-24T09:57:00.211Z,504.00
2022-12-24T09:58:00.186Z,508.00
2022-12-24T09:59:00.158Z,503.00
2022-12-24T10:00:00.175Z,505.00
2022-12-24T10:01:00.220Z,506.00
2022-12-24T10:02:00.253Z,500.00
2022-12-24T10:03:00.220Z,500.00
2022-12-24T10:04:00.129Z,508.00
2022-12-24T10:05:00.137Z,508.00
2022-12-24T17:06:55.618Z,506.00
2022-12-24T17:07:55.599Z,508.00
2022-12-24T17:08:55.592Z,508.00
2022-12-24T17:09:55.641Z,509.00
2022-12-24T17:10:55.569Z,501.00
2022-12-24T17:11:55.563Z,504.00
2022-12-24T17:12:55.570Z,500.00
2022-12-24T17:13:55.563Z,502.00
2022-12-24T17:14:55.541Z,508.00
2022-12-24T17:15:55.593Z,510.00
2022-12-24T17:16:55.513Z,510.00
2022-12-24T17:17:55.510Z,509.00
2022-12-24T17:18:55.516Z,503.00
2022-12-24T17:19:55.543Z,504.00
2022-12-24T17:20:55.476Z,505.00
2022-12-24T17:21:55.461Z,507.00
2022-12-24T17:22:55.447Z,504.00
2022-12-24T17:23:55.447Z,509.00
2022-12-24T17:24:55.425Z,501.00
2022-12-24T17:25:55.418Z,506.00
2022-12-24T17:26:55.440Z,504.00
2022-12-24T17:27:55.436Z,503.00
2022-12-24T17:28:55.389Z,507.00
2022-12-24T17:29:55.369Z,502.00
2022-12-24T17:30:55.427Z,505.00
2022-12-24T17:31:55.363Z,502.00
2022-12-24T17:32:55.335Z,502.00
2022-12-24T17:33:55.326Z,511.00
2022-12-24T17:34:55.310Z,502.00
2022-12-24T17:35:55.305Z,511.00
2022-12-24T17:36:55.302Z,506.00
2022-12-24T17:37:55.297Z,507.00
2022-12-24T17:38:55.277Z,509.00
2022-12-24T17:39:55.263Z,509.00
2022-12-24T17:40:55.260Z,508.00
2022-12-24T17:41:55.272Z,502.00
2022-12-24T17:42:55.248Z,506.00
2022-12-24T17:43:55.242Z,503.00
2022-12-24T17:44:55.251Z,505.00
2022-12-24T17:45:55.227Z,500.00
2022-12-24T17:46:55.225Z,505.00
2022-12-24T17:47:55.239Z,505.00
2022-12-24T17:48:55.220Z,507.00
2022-12-24T17:49:55.197Z,502.00
2022-12-24T17:50:55.224Z,510.00
2022-12-24T17:51:55.193Z,504.00
2022-12-24T17:52:55.183Z,506.00
2022-12-24T17:53:55.203Z,505.00
2022-12-24T17:54:55.168Z,510.00
2022-12-24T17:55:55.168Z,505.00
2022-12-24T17:56:55.178Z,503.00
2022-12-24T17:57:55.162Z,505.00
2022-12-24T17:58:55.175Z,507.00
2022-12-24T17:59:55.135Z,503.00
2022-12-24T18:00:55.152Z,511.00
2022-12-24T18:01:55.220Z,506.00
2022-12-24T18:02:55.194Z,506.00
2022-12-24T18:03:55.199Z,508.00
2022-12-24T18:04:55.106Z,511.00
2022-12-24T18:05:55.102Z,508.00
2022-12-24T18:07:02.108Z,501.00
2022-12-24T18:07:56.096Z,502.00
2022-12-24T18:08:55.094Z,501.00
2022-12-24T18:09:55.091Z,503.00
2022-12-24T18:10:55.084Z,504.00
2022-12-24T18:11:55.077Z,506.00
2022-12-24T18:12:55.055Z,507.00
2022-12-24T18:13:55.071Z,504.00
2022-12-24T18:14:55.047Z,505.00
2022-12-24T18:15:55.087Z,506.00
2022-12-24T18:16:55.034Z,505.00
2022-12-24T18:17:55.031Z,507.00
2022-12-24T18:18:55.025Z,507.00
2022-12-24T18:19:55.013Z,508.00
2022-12-24T18:20:55.027Z,502.00
2022-12-24T18:21:54.997Z,507.00
2022-12-24T18:22:55.005Z,508.00
2022-12-24T18:23:54.988Z,508.00
2022-12-24T18:24:55.000Z,501.00
2022-12-24T18:25:54.975Z,504.00
2022-12-24T18:26:54.963Z,501.00
2022-12-24T18:27:54.971Z,502.00
2022-12-24T18:28:54.956Z,500.00
2022-12-24T18:29:54.960Z,503.00
2022-12-24T18:30:54.954Z,506.00
2022-12-24T18:31:54.967Z,500.00
2022-12-24T18:32:54.928Z,505.00
2022-12-24T18:33:54.920Z,505.00
2022-12-24T18:34:54.920Z,506.00
2022-12-24T18:35:54.918Z,506.00
2022-12-24T18:36:55.770Z,504.00
2022-12-24T18:37:54.926Z,502.00
2022-12-24T18:38:54.916Z,503.00
2022-12-24T18:39:54.894Z,505.00
2022-12-24T18:40:54.883Z,504.00
2022-12-24T18:41:54.874Z,504.00
2022-12-24T18:42:54.860Z,500.00
2022-12-24T18:43:54.855Z,506.00
2022-12-24T18:44:54.858Z,505.00
2022-12-24T18:45:54.855Z,503.00
2022-12-24T18:46:54.958Z,507.00
2022-12-24T18:47:54.839Z,505.00
2022-12-24T18:48:54.828Z,504.00
2022-12-24T18:49:54.831Z,505.00
2022-12-24T18:50:54.838Z,502.00
2022-12-24T18:51:54.830Z,502.00
2022-12-24T18:52:54.815Z,503.00
2022-12-24T18:53:54.818Z,505.00
2022-12-24T18:54:54.814Z,504.00
2022-12-24T18:55:54.835Z,504.00
2022-12-24T18:56:54.790Z,508.00
2022-12-24T18:57:54.861Z,504.00
2022-12-24T18:58:54.783Z,503.00
2022-12-24T18:59:54.804Z,502.00
2022-12-24T19:00:54.803Z,505.00
2022-12-24T19:01:54.951Z,509.00
2022-12-24T19:02:54.982Z,506.00
2022-12-24T19:03:54.787Z,505.00
2022-12-24T19:04:54.801Z,509.00
2022-12-24T19:05:54.787Z,503.00
2022-12-24T19:06:54.797Z,506.00
2022-12-24T19:07:54.782Z,504.00
2022-12-24T19:08:57.674Z,505.00
2022-12-24T19:09:54.763Z,505.00
2022-12-24T19:10:54.765Z,505.00
2022-12-24T19:11:54.752Z,501.00
2022-12-24T19:12:54.755Z,504.00
2022-12-24T19:13:54.741Z,509.00
2022-12-24T19:14:54.746Z,502.00
2022-12-24T19:15:54.751Z,503.00
2022-12-24T19:16:54.840Z,508.00
2022-12-24T19:17:54.730Z,504.00
2022-12-24T19:18:54.725Z,508.00
2022-12-24T19:19:54.759Z,506.00
2022-12-24T19:20:54.742Z,505.00
2022-12-24T19:21:54.757Z,504.00
2022-12-24T19:22:54.710Z,509.00
2022-12-24T19:23:54.735Z,504.00
2022-12-24T19:24:54.699Z,507.00
2022-12-24T19:25:54.713Z,504.00
2022-12-24T19:26:54.686Z,504.00
2022-12-24T19:27:54.681Z,507.00
2022-12-24T19:28:54.680Z,508.00
2022-12-24T19:29:54.667Z,506.00
2022-12-24T19:30:54.660Z,504.00
2022-12-24T19:31:54.711Z,504.00
2022-12-24T19:32:54.650Z,504.00
2022-12-24T19:33:54.641Z,504.00
2022-12-24T19:34:54.632Z,505.00
2022-12-24T19:35:54.633Z,503.00
2022-12-24T19:36:54.645Z,506.00
2022-12-24T19:37:54.624Z,508.00
2022-12-24T19:38:54.631Z,506.00
2022-12-24T19:39:54.604Z,502.00
2022-12-24T19:40:54.609Z,506.00
2022-12-24T19:41:54.603Z,504.00
2022-12-24T19:42:54.606Z,504.00
2022-12-24T19:43:54.594Z,503.00
2022-12-24T19:44:54.581Z,501.00
2022-12-24T19:45:54.629Z,506.00
2022-12-24T19:46:54.570Z,506.00
2022-12-24T19:47:54.565Z,508.00
2022-12-24T19:48:54.566Z,507.00
2022-12-24T19:49:54.556Z,506.00
2022-12-24T19:50:54.549Z,505.00
2022-12-24T19:51:54.539Z,505.00
2022-12-24T19:52:54.548Z,505.00
2022-12-24T19:53:54.541Z,503.00
2022-12-24T19:54:54.532Z,505.00
2022-12-24T19:55:54.518Z,506.00
2022-12-24T19:56:54.510Z,504.00
2022-12-24T19:57:54.507Z,505.00
2022-12-24T19:58:54.505Z,505.00
2022-12-24T19:59:54.501Z,505.00
2022-12-24T20:00:54.534Z,507.00
2022-12-24T20:01:54.693Z,508.00
2022-12-24T20:02:54.595Z,502.00
2022-12-24T20:03:54.468Z,505.00
2022-12-24T20:04:54.453Z,507.00
2022-12-24T20:05:54.449Z,506.00
2022-12-24T20:06:59.916Z,506.00
2022-12-24T20:07:55.445Z,506.00
2022-12-24T20:08:54.421Z,506.00
2022-12-24T20:09:54.424Z,507.00
2022-12-24T20:10:54.422Z,506.00
2022-12-24T20:11:54.401Z,505.00
2022-12-24T20:12:54.414Z,504.00
2022-12-24T20:13:54.390Z,506.00
2022-12-24T20:14:54.402Z,504.00
2022-12-24T20:15:54.382Z,503.00
2022-12-24T20:16:54.447Z,506.00
2022-12-24T20:17:54.374Z,500.00
2022-12-24T20:18:54.368Z,504.00
2022-12-24T20:19:54.364Z,503.00
2022-12-24T20:20:54.359Z,505.00
2022-12-24T20:21:54.388Z,507.00
2022-12-24T20:22:54.351Z,508.00
2022-12-24T20:23:54.350Z,506.00
2022-12-24T20:24:54.343Z,509.00
2022-12-24T20:25:54.344Z,506.00
2022-12-24T20:26:54.345Z,509.00
2022-12-24T20:27:54.371Z,504.00
2022-12-24T20:28:54.363Z,509.00
2022-12-24T20:29:54.365Z,503.00
2022-12-24T20:30:54.390Z,505.00
2022-12-24T20:31:54.376Z,503.00
2022-12-24T20:32:54.359Z,507.00
2022-12-24T20:33:54.356Z,507.00
2022-12-24T20:34:54.355Z,502.00
2022-12-24T20:35:54.365Z,508.00
2022-12-24T20:36:54.368Z,510.00
2022-12-24T20:37:54.352Z,509.00
2022-12-24T20:38:54.369Z,507.00
2022-12-24T20:39:54.338Z,509.00
2022-12-24T20:40:54.332Z,510.00
2022-12-24T20:41:54.340Z,508.00
2022-12-24T20:42:54.330Z,506.00
2022-12-24T20:43:54.334Z,510.00
2022-12-24T20:44:54.333Z,504.00
2022-12-24T20:45:54.396Z,503.00
2022-12-24T20:46:54.358Z,508.00
2022-12-24T20:47:54.340Z,506.00
2022-12-24T20:48:54.340Z,506.00
2022-12-24T20:49:54.340Z,510.00
2022-12-24T20:50:54.331Z,508.00
2022-12-24T20:51:54.369Z,509.00
2022-12-24T20:52:54.335Z,509.00
2022-12-24T20:53:54.350Z,504.00
2022-12-24T20:54:54.337Z,507.00
2022-12-24T20:55:54.383Z,501.00
2022-12-24T20:56:58.051Z,508.00
2022-12-24T20:57:54.357Z,508.00
2022-12-24T20:58:54.341Z,508.00
2022-12-24T20:59:54.349Z,507.00
2022-12-24T21:00:54.370Z,508.00
2022-12-24T21:01:54.567Z,509.00
2022-12-24T21:02:54.550Z,507.00
2022-12-24T21:03:54.391Z,509.00
2022-12-24T21:05:01.472Z,506.00
2022-12-24T21:06:54.337Z,508.00
2022-12-24T21:07:54.337Z,508.00
2022-12-24T21:08:54.323Z,508.00
2022-12-24T21:09:54.346Z,508.00
2022-12-24T21:10:54.320Z,509.00